x

Venice, Fl (venf1) Weather Station

12:00am - Wed 22nd Nov 2017 All times are EST. -5 hours from GMT.

  • Wind
    6mph, 7mph gusts
  • Sea Temp 72°f
  • Air Temp 67°f
  • Sea Pressure 1014.1mb
  • Venice, Fl
  • Venice, Fl

More Historic Weather Station data

Upgrade to MSW Pro to gain access to the past 30 days of data for over 8000 Wavebouys and Weather Stations around the globe.

Join

Comparision Forecast

View Surf forecast
   
Wed 11/22 12:00am 6 7 mph 1014.1mb 72f 67f
Tue 11/21 11:00pm 7 7 mph 1014.2mb 72f 68f
10:00pm 6 7 mph 1014.8mb 72f 69f
9:00pm 6 7 mph 1014.5mb 72f 70f
8:00pm 5 6 mph 1014mb 72f 71f
7:00pm 6 6 mph 1013.9mb 72f 73f
6:00pm  -  1 mph 1013.5mb 72f 73f
5:00pm 8 8 mph 1012.8mb 72f 74f
4:00pm 9 10 mph 1012.8mb 71f 77f
3:00pm 9 11 mph 1012.4mb 71f 76f
2:00pm 5 6 mph 1013.4mb 71f 75f
1:00pm 6 8 mph 1014.4mb 71f 74f
12:00pm 10 13 mph 1015.7mb 71f 74f
11:00am 10 11 mph 1016.5mb 71f 73f
10:00am 10 14 mph 1016.7mb 71f 71f
9:00am 13 18 mph 1016.7mb 71f 71f
8:00am 11 15 mph 1015.9mb 71f 68f
7:00am 11 14 mph 1015.3mb 71f 66f
6:00am 10 14 mph 1015.6mb 71f 65f
5:00am 9 14 mph 1015.3mb 71f 65f
4:00am 10 13 mph 1015.8mb 71f 66f
3:00am 9 13 mph 1016.2mb 71f 65f
2:00am 9 11 mph 1016.6mb 71f 64f
1:00am 10 14 mph 1017mb 71f 65f
12:00am 8 10 mph 1017.4mb 72f 65f
Mon 11/20 11:00pm 10 14 mph 1017.8mb 72f 67f
10:00pm 9 11 mph 1018.3mb 72f 67f
9:00pm 7 9 mph 1018.3mb 72f 69f
8:00pm 8 10 mph 1018.1mb 72f 71f
7:00pm 9 13 mph 1017.9mb 72f 73f
6:00pm 8 10 mph 1017.3mb 72f 75f
5:00pm 10 13 mph 1017mb 72f 77f
4:00pm 8 10 mph 1016.7mb 72f 78f
3:00pm 8 9 mph 1016.7mb 72f 77f
2:00pm 9 13 mph 1017mb 72f 77f
1:00pm 10 14 mph 1017.7mb 72f 75f
12:00pm 11 15 mph 1018.5mb 72f 74f
11:00am 15 20 mph 1019.3mb 72f 70f
10:00am 14 17 mph 1019.6mb 71f 64f
9:00am 16 20 mph 1019.5mb 71f 58f
8:00am 13 16 mph 1019.1mb 71f 54f
7:00am 11 16 mph 1018.7mb 71f 52f
6:00am 14 16 mph 1018.3mb 72f 53f
5:00am 13 17 mph 1017.8mb 72f 54f
4:00am 11 16 mph 1017.5mb 72f 56f
3:00am 14 18 mph 1017.6mb 73f 58f
2:00am 15 18 mph 1017.5mb 73f 60f
1:00am 15 22 mph 1017.4mb 73f 61f
12:00am 13 16 mph 1017.2mb 73f 63f
Sun 11/19 11:00pm 8 13 mph 1017mb 74f 64f
10:00pm 11 15 mph 1016.5mb 74f 65f
9:00pm 10 13 mph 1015.6mb 74f 67f
8:00pm 11 13 mph 1014.9mb 74f 68f
7:00pm 17 20 mph 1014.1mb 74f 69f
6:00pm 21 22 mph 1013.6mb 74f 70f
5:00pm 10 10 mph 1013mb 74f 73f
4:00pm 15 16 mph 1012.8mb 74f 74f
3:00pm 8 9 mph 1012.7mb 74f 75f
2:00pm 9 10 mph 1012.9mb 74f 76f
1:00pm 10 11 mph 1013.7mb 73f 76f
12:00pm 8 9 mph 1014.2mb 73f 75f
11:00am 9 10 mph 1015mb 73f 75f
10:00am 10 11 mph 1015.1mb 73f 75f
9:00am 10 11 mph 1014.9mb 73f 75f
8:00am 11 13 mph 1014.5mb 73f 74f
7:00am 10 11 mph 1014.1mb 72f 73f
6:00am 10 10 mph 1014.1mb 73f 73f
5:00am 10 11 mph 1013.9mb 73f 73f
4:00am 9 10 mph 1014mb 73f 73f
3:00am 10 10 mph 1014.4mb 73f 73f
2:00am 9 10 mph 1014.4mb 73f 73f
1:00am 8 9 mph 1014.5mb 73f 73f
12:00am 6 6 mph 1014.9mb 73f 73f
Sat 11/18 11:00pm 6 6 mph 1015.1mb 73f 73f
10:00pm 5 5 mph 1015.1mb 73f 72f
9:00pm 5 5 mph 1015.1mb 73f 73f
8:00pm 6 6 mph 1014.9mb 73f 73f
7:00pm 6 7 mph 1014.7mb 73f 73f
6:00pm 7 8 mph 1014.3mb 73f 73f
5:00pm 7 8 mph 1014.3mb 73f 74f
4:00pm 9 9 mph 1014.2mb 73f 75f
3:00pm 7 8 mph 1014.2mb 73f 75f
2:00pm 9 10 mph 1014.6mb 73f 75f
1:00pm 8 9 mph 1015.2mb 72f 75f
12:00pm 8 8 mph 1016.2mb 72f 74f
11:00am 6 8 mph 1017.2mb 72f 75f
10:00am 8 9 mph 1017.7mb 72f 72f
9:00am 5 7 mph 1017.6mb 71f 68f